RYR4PG LEBL-LEPA
Flight info
| Callsign | RYR4PG |
|---|---|
| Flight time | 0h 27m |
| Altitude | 17000 |
| Route | LARPA N859 TOLSO |
| Aircraft | B38M/M-SDE1FGHILORVWXY/HB1 |
Departure
| Time | 2026-05-04 17:35 |
|---|---|
| Airport | Josep Tarradellas Barcelona-El Prat Airport (LEBL) |
Arrival
| Time | 2026-05-04 18:02 |
|---|---|
| Airport | Palma de Mallorca Airport (LEPA) |
| Time | Latitude | Longitude | Altitude | Speed | Heading |
|---|---|---|---|---|---|
| 2026-05-04 17:00 | 41.30242 | 2.08036 | 23 ft | 0 kts | 5° |
| 2026-05-04 17:18 | 41.30198 | 2.08035 | 26 ft | 4 kts | 354° |
| 2026-05-04 17:19 | 41.30172 | 2.08040 | 25 ft | 0 kts | 352° |
| 2026-05-04 17:23 | 41.30174 | 2.08041 | 24 ft | 0 kts | 6° |
| 2026-05-04 17:23 | 41.30178 | 2.08040 | 25 ft | 1 kts | 344° |
| 2026-05-04 17:23 | 41.30177 | 2.08030 | 23 ft | 1 kts | 239° |
| 2026-05-04 17:24 | 41.30144 | 2.07980 | 21 ft | 14 kts | 223° |
| 2026-05-04 17:24 | 41.29914 | 2.08061 | 21 ft | 1 kts | 160° |
| 2026-05-04 17:25 | 41.29896 | 2.08069 | 24 ft | 4 kts | 160° |
| 2026-05-04 17:25 | 41.29764 | 2.08138 | 24 ft | 19 kts | 155° |
| 2026-05-04 17:26 | 41.29432 | 2.08336 | 20 ft | 29 kts | 154° |
| 2026-05-04 17:26 | 41.28875 | 2.08689 | 19 ft | 17 kts | 118° |
| 2026-05-04 17:27 | 41.28959 | 2.09017 | 19 ft | 22 kts | 66° |
| 2026-05-04 17:27 | 41.29076 | 2.09345 | 19 ft | 19 kts | 64° |
| 2026-05-04 17:28 | 41.29135 | 2.09497 | 19 ft | 0 kts | 65° |
| 2026-05-04 17:29 | 41.29138 | 2.09506 | 19 ft | 6 kts | 65° |
| 2026-05-04 17:29 | 41.29225 | 2.09783 | 20 ft | 0 kts | 65° |
| 2026-05-04 17:32 | 41.29239 | 2.09822 | 20 ft | 6 kts | 65° |
| 2026-05-04 17:33 | 41.29242 | 2.10156 | 17 ft | 18 kts | 94° |
| 2026-05-04 17:33 | 41.29248 | 2.10296 | 16 ft | 8 kts | 128° |
| 2026-05-04 17:34 | 41.29191 | 2.10239 | 18 ft | 14 kts | 246° |
| 2026-05-04 17:34 | 41.29036 | 2.09786 | 26 ft | 96 kts | 245° |
| 2026-05-04 17:35 | 41.27368 | 2.05408 | 1293 ft | 229 kts | 235° |
| 2026-05-04 17:35 | 41.25063 | 2.02405 | 3662 ft | 248 kts | 199° |
| 2026-05-04 17:35 | 41.23354 | 2.02456 | 5059 ft | 249 kts | 162° |
| 2026-05-04 17:36 | 41.21962 | 2.03748 | 6493 ft | 249 kts | 135° |
| 2026-05-04 17:36 | 41.20759 | 2.05374 | 7695 ft | 247 kts | 152° |
| 2026-05-04 17:36 | 41.19169 | 2.05984 | 8743 ft | 236 kts | 188° |
| 2026-05-04 17:36 | 41.17566 | 2.05574 | 9862 ft | 237 kts | 198° |
| 2026-05-04 17:37 | 41.16086 | 2.04654 | 10844 ft | 235 kts | 215° |
| 2026-05-04 17:37 | 41.14707 | 2.03456 | 11848 ft | 240 kts | 213° |
| 2026-05-04 17:37 | 41.13200 | 2.02466 | 12829 ft | 244 kts | 207° |
| 2026-05-04 17:37 | 41.11659 | 2.01499 | 13814 ft | 247 kts | 208° |
| 2026-05-04 17:38 | 41.10105 | 2.00491 | 14665 ft | 250 kts | 209° |
| 2026-05-04 17:38 | 41.08540 | 1.99458 | 15540 ft | 252 kts | 209° |
| 2026-05-04 17:38 | 41.06907 | 1.98515 | 16224 ft | 266 kts | 198° |
| 2026-05-04 17:38 | 41.05017 | 1.98043 | 16633 ft | 288 kts | 194° |
| 2026-05-04 17:39 | 41.00787 | 1.97015 | 16835 ft | 328 kts | 194° |
| 2026-05-04 17:39 | 40.98475 | 1.96454 | 16837 ft | 345 kts | 194° |
| 2026-05-04 17:39 | 40.96030 | 1.96166 | 16865 ft | 361 kts | 180° |
| 2026-05-04 17:40 | 40.93549 | 1.96967 | 16883 ft | 377 kts | 161° |
| 2026-05-04 17:40 | 40.91328 | 1.98910 | 16895 ft | 391 kts | 141° |
| 2026-05-04 17:40 | 40.89622 | 2.01696 | 16910 ft | 398 kts | 131° |
| 2026-05-04 17:40 | 40.87939 | 2.04612 | 16885 ft | 400 kts | 133° |
| 2026-05-04 17:41 | 40.86233 | 2.07526 | 16902 ft | 400 kts | 133° |
| 2026-05-04 17:41 | 40.84528 | 2.10429 | 16903 ft | 400 kts | 133° |
| 2026-05-04 17:41 | 40.82826 | 2.13321 | 16909 ft | 400 kts | 133° |
| 2026-05-04 17:41 | 40.81116 | 2.16223 | 16911 ft | 400 kts | 133° |
| 2026-05-04 17:42 | 40.79404 | 2.19126 | 16907 ft | 400 kts | 133° |
| 2026-05-04 17:42 | 40.77673 | 2.21996 | 16902 ft | 397 kts | 138° |
| 2026-05-04 17:42 | 40.75571 | 2.24239 | 16906 ft | 386 kts | 153° |
| 2026-05-04 17:42 | 40.73299 | 2.26154 | 16911 ft | 387 kts | 153° |
| 2026-05-04 17:43 | 40.71021 | 2.28051 | 16904 ft | 387 kts | 153° |
| 2026-05-04 17:43 | 40.68737 | 2.29928 | 16890 ft | 388 kts | 153° |
| 2026-05-04 17:43 | 40.66437 | 2.31801 | 16910 ft | 389 kts | 153° |
| 2026-05-04 17:43 | 40.64151 | 2.33656 | 16912 ft | 389 kts | 154° |
| 2026-05-04 17:44 | 40.61816 | 2.35418 | 16898 ft | 390 kts | 151° |
| 2026-05-04 17:44 | 40.59775 | 2.37830 | 16927 ft | 397 kts | 139° |
| 2026-05-04 17:44 | 40.57775 | 2.40323 | 16905 ft | 395 kts | 143° |
| 2026-05-04 17:44 | 40.55724 | 2.42713 | 16917 ft | 394 kts | 144° |
| 2026-05-04 17:45 | 40.53647 | 2.45070 | 16905 ft | 394 kts | 144° |
| 2026-05-04 17:45 | 40.51561 | 2.47404 | 16917 ft | 394 kts | 145° |
| 2026-05-04 17:45 | 40.49469 | 2.49722 | 16913 ft | 394 kts | 145° |
| 2026-05-04 17:45 | 40.47372 | 2.52034 | 16913 ft | 394 kts | 145° |
| 2026-05-04 17:46 | 40.45282 | 2.54334 | 16896 ft | 388 kts | 145° |
| 2026-05-04 17:46 | 40.43270 | 2.56546 | 16884 ft | 371 kts | 145° |
| 2026-05-04 17:46 | 40.41318 | 2.58687 | 16706 ft | 361 kts | 146° |
| 2026-05-04 17:46 | 40.39389 | 2.60802 | 16324 ft | 357 kts | 146° |
| 2026-05-04 17:47 | 40.37488 | 2.62886 | 15948 ft | 354 kts | 146° |
| 2026-05-04 17:47 | 40.35605 | 2.64946 | 15559 ft | 351 kts | 146° |
| 2026-05-04 17:47 | 40.33735 | 2.66993 | 15170 ft | 348 kts | 145° |
| 2026-05-04 17:47 | 40.31881 | 2.69019 | 14768 ft | 346 kts | 145° |
| 2026-05-04 17:48 | 40.30046 | 2.71024 | 14398 ft | 343 kts | 145° |
| 2026-05-04 17:48 | 40.28233 | 2.73003 | 14018 ft | 341 kts | 145° |
| 2026-05-04 17:48 | 40.26393 | 2.75010 | 13620 ft | 339 kts | 145° |
| 2026-05-04 17:48 | 40.24619 | 2.76943 | 13202 ft | 337 kts | 145° |
| 2026-05-04 17:49 | 40.22824 | 2.78898 | 12806 ft | 334 kts | 145° |
| 2026-05-04 17:49 | 40.21041 | 2.80840 | 12410 ft | 332 kts | 145° |
| 2026-05-04 17:49 | 40.19278 | 2.82757 | 12045 ft | 329 kts | 145° |
| 2026-05-04 17:49 | 40.17523 | 2.84665 | 11677 ft | 326 kts | 145° |
| 2026-05-04 17:50 | 40.15786 | 2.86551 | 11306 ft | 324 kts | 145° |
| 2026-05-04 17:50 | 40.14057 | 2.88429 | 10936 ft | 322 kts | 145° |
| 2026-05-04 17:50 | 40.12350 | 2.90281 | 10693 ft | 316 kts | 145° |
| 2026-05-04 17:50 | 40.10682 | 2.92089 | 10551 ft | 306 kts | 146° |
| 2026-05-04 17:51 | 40.09070 | 2.93841 | 10410 ft | 298 kts | 144° |
| 2026-05-04 17:51 | 40.07473 | 2.95449 | 10253 ft | 282 kts | 159° |
| 2026-05-04 17:51 | 40.05678 | 2.96250 | 10070 ft | 270 kts | 171° |
| 2026-05-04 17:51 | 40.03839 | 2.96827 | 9635 ft | 274 kts | 172° |
| 2026-05-04 17:52 | 40.01966 | 2.97393 | 9160 ft | 278 kts | 172° |
| 2026-05-04 17:52 | 40.00076 | 2.97954 | 8781 ft | 278 kts | 172° |
| 2026-05-04 17:52 | 39.98195 | 2.98510 | 8421 ft | 278 kts | 172° |
| 2026-05-04 17:52 | 39.96321 | 2.99082 | 8062 ft | 278 kts | 172° |
| 2026-05-04 17:53 | 39.94448 | 2.99651 | 7704 ft | 278 kts | 172° |
| 2026-05-04 17:53 | 39.92626 | 3.00200 | 7343 ft | 270 kts | 172° |
| 2026-05-04 17:53 | 39.90820 | 3.00715 | 7041 ft | 256 kts | 172° |
| 2026-05-04 17:53 | 39.89147 | 3.01217 | 7042 ft | 248 kts | 172° |
| 2026-05-04 17:54 | 39.87467 | 3.01733 | 7008 ft | 248 kts | 172° |
| 2026-05-04 17:54 | 39.85809 | 3.02240 | 7002 ft | 248 kts | 172° |
| 2026-05-04 17:54 | 39.84136 | 3.02755 | 6969 ft | 248 kts | 172° |
| 2026-05-04 17:54 | 39.82472 | 3.03267 | 6968 ft | 248 kts | 172° |
| 2026-05-04 17:55 | 39.80814 | 3.03777 | 6969 ft | 248 kts | 172° |
| 2026-05-04 17:55 | 39.79158 | 3.04286 | 6948 ft | 247 kts | 172° |
| 2026-05-04 17:55 | 39.77489 | 3.04807 | 6962 ft | 248 kts | 172° |
| 2026-05-04 17:55 | 39.75821 | 3.05333 | 6945 ft | 247 kts | 172° |
| 2026-05-04 17:56 | 39.74166 | 3.05771 | 6822 ft | 235 kts | 185° |
| 2026-05-04 17:56 | 39.72714 | 3.05198 | 6474 ft | 221 kts | 219° |
| 2026-05-04 17:56 | 39.71643 | 3.03858 | 6177 ft | 212 kts | 227° |
| 2026-05-04 17:56 | 39.70586 | 3.02578 | 5845 ft | 206 kts | 223° |
| 2026-05-04 17:57 | 39.69531 | 3.01362 | 5537 ft | 199 kts | 223° |
| 2026-05-04 17:57 | 39.68516 | 3.00180 | 5220 ft | 194 kts | 223° |
| 2026-05-04 17:57 | 39.67522 | 2.99017 | 4800 ft | 195 kts | 223° |
| 2026-05-04 17:57 | 39.66496 | 2.97811 | 4254 ft | 202 kts | 223° |
| 2026-05-04 17:58 | 39.65443 | 2.96568 | 3710 ft | 208 kts | 224° |
| 2026-05-04 17:58 | 39.64485 | 2.95149 | 3136 ft | 212 kts | 238° |
| 2026-05-04 17:58 | 39.63752 | 2.93573 | 3095 ft | 197 kts | 238° |
| 2026-05-04 17:58 | 39.63043 | 2.92080 | 2868 ft | 199 kts | 237° |
| 2026-05-04 17:59 | 39.62335 | 2.90581 | 2635 ft | 196 kts | 237° |
| 2026-05-04 17:59 | 39.61635 | 2.89097 | 2353 ft | 192 kts | 237° |
| 2026-05-04 17:59 | 39.60321 | 2.86303 | 1871 ft | 167 kts | 237° |
| 2026-05-04 18:00 | 39.59761 | 2.85119 | 1658 ft | 145 kts | 237° |
| 2026-05-04 18:00 | 39.59237 | 2.84011 | 1437 ft | 138 kts | 237° |
| 2026-05-04 18:00 | 39.58777 | 2.83037 | 1301 ft | 120 kts | 234° |
| 2026-05-04 18:00 | 39.58336 | 2.82115 | 1115 ft | 122 kts | 235° |
| 2026-05-04 18:01 | 39.57896 | 2.81177 | 974 ft | 120 kts | 238° |
| 2026-05-04 18:01 | 39.57469 | 2.80249 | 772 ft | 120 kts | 236° |
| 2026-05-04 18:01 | 39.57032 | 2.79327 | 655 ft | 122 kts | 237° |
| 2026-05-04 18:02 | 39.56152 | 2.77510 | 272 ft | 132 kts | 238° |
| 2026-05-04 18:02 | 39.55696 | 2.76493 | 132 ft | 132 kts | 238° |
| 2026-05-04 18:02 | 39.55243 | 2.75525 | 42 ft | 112 kts | 237° |
| 2026-05-04 18:02 | 39.54959 | 2.74932 | 39 ft | 47 kts | 239° |
| 2026-05-04 18:03 | 39.54829 | 2.74597 | 41 ft | 26 kts | 254° |
| 2026-05-04 18:03 | 39.54810 | 2.74487 | 41 ft | 5 kts | 261° |
| 2026-05-04 18:03 | 39.54806 | 2.74432 | 41 ft | 7 kts | 272° |
| 2026-05-04 18:03 | 39.54805 | 2.74358 | 41 ft | 8 kts | 268° |
| 2026-05-04 18:04 | 39.54803 | 2.74279 | 41 ft | 4 kts | 268° |
| 2026-05-04 18:04 | 39.54803 | 2.74250 | 41 ft | 4 kts | 268° |
| 2026-05-04 18:04 | 39.54825 | 2.74141 | 41 ft | 9 kts | 309° |
| 2026-05-04 18:05 | 39.54869 | 2.74092 | 41 ft | 7 kts | 329° |
| 2026-05-04 18:05 | 39.54917 | 2.74056 | 41 ft | 9 kts | 330° |
| 2026-05-04 18:05 | 39.54938 | 2.73984 | 41 ft | 10 kts | 245° |
| 2026-05-04 18:05 | 39.54875 | 2.73978 | 41 ft | 11 kts | 148° |
| 2026-05-04 18:06 | 39.54788 | 2.73939 | 41 ft | 9 kts | 237° |
| 2026-05-04 18:06 | 39.54750 | 2.73861 | 41 ft | 12 kts | 238° |
| 2026-05-04 18:06 | 39.54700 | 2.73760 | 41 ft | 14 kts | 239° |
| 2026-05-04 18:07 | 39.54660 | 2.73637 | 41 ft | 15 kts | 285° |
| 2026-05-04 18:07 | 39.54726 | 2.73565 | 41 ft | 8 kts | 329° |
| 2026-05-04 18:07 | 39.54772 | 2.73512 | 41 ft | 7 kts | 295° |
| 2026-05-04 18:07 | 39.54803 | 2.73452 | 41 ft | 7 kts | 322° |
| 2026-05-04 18:08 | 39.54832 | 2.73430 | 41 ft | 4 kts | 333° |
| 2026-05-04 18:08 | 39.54842 | 2.73424 | 41 ft | 1 kts | 333° |